createdAt,value
2022-11-22T00:01:24.751Z,5.82
2022-11-22T00:06:26.465Z,5.13
2022-11-22T00:11:28.208Z,5.55
2022-11-22T00:16:30.128Z,6.60
2022-11-22T00:21:31.947Z,7.90
2022-11-22T00:26:33.669Z,6.53
2022-11-22T00:31:35.350Z,5.60
2022-11-22T00:36:37.047Z,5.85
2022-11-22T00:41:38.708Z,5.53
2022-11-22T00:46:40.405Z,6.82
2022-11-22T00:51:42.027Z,4.40
2022-11-22T00:56:43.679Z,5.78
2022-11-22T01:01:45.430Z,5.25
2022-11-22T01:06:47.168Z,5.93
2022-11-22T01:11:49.656Z,4.30
2022-11-22T01:16:51.324Z,6.13
2022-11-22T01:21:53.061Z,5.50
2022-11-22T01:26:57.595Z,5.90
2022-11-22T01:31:59.415Z,11.98
2022-11-22T01:37:01.147Z,5.68
2022-11-22T01:42:02.891Z,5.03
2022-11-22T01:47:12.448Z,5.35
2022-11-22T01:52:17.605Z,5.72
2022-11-22T01:57:24.513Z,5.80
2022-11-22T02:02:26.801Z,8.35
2022-11-22T02:07:35.635Z,6.70
2022-11-22T02:12:37.648Z,8.93
2022-11-22T02:17:39.305Z,6.43
2022-11-22T02:22:56.848Z,6.45
2022-11-22T02:27:58.905Z,8.07
2022-11-22T02:33:00.577Z,6.70
2022-11-22T02:38:06.024Z,6.50
2022-11-22T02:43:35.835Z,6.28
2022-11-22T02:48:45.187Z,8.48
2022-11-22T02:53:49.234Z,6.00
2022-11-22T02:58:51.163Z,6.78
2022-11-22T03:03:52.874Z,7.75
2022-11-22T03:08:56.579Z,8.07
2022-11-22T03:13:58.548Z,6.55
2022-11-22T03:19:00.207Z,8.38
2022-11-22T03:24:02.209Z,7.70
2022-11-22T03:29:04.589Z,7.72
2022-11-22T03:34:06.328Z,7.28
2022-11-22T03:39:08.148Z,8.80
2022-11-22T03:44:09.901Z,5.83
2022-11-22T03:49:12.062Z,7.80
2022-11-22T03:54:13.957Z,6.13
2022-11-22T03:59:15.815Z,7.57
2022-11-22T04:04:17.539Z,7.20
2022-11-22T04:09:19.294Z,6.35
2022-11-22T04:14:39.466Z,8.18
2022-11-22T04:20:01.105Z,9.50
2022-11-22T04:25:15.601Z,7.30
2022-11-22T04:30:20.642Z,13.38
2022-11-22T04:35:22.709Z,11.75
2022-11-22T04:40:24.383Z,11.05
2022-11-22T04:45:26.222Z,10.23
2022-11-22T04:50:48.909Z,5.70
2022-11-22T04:55:51.431Z,6.72
2022-11-22T05:00:53.227Z,8.95
2022-11-22T05:05:55.001Z,7.00
2022-11-22T05:10:56.731Z,6.28
2022-11-22T05:16:00.094Z,6.97
2022-11-22T05:21:06.962Z,7.18
2022-11-22T05:26:09.916Z,9.10
2022-11-22T05:31:23.332Z,7.15
2022-11-22T05:36:25.075Z,6.68
2022-11-22T05:41:26.840Z,7.53
2022-11-22T05:46:30.589Z,8.63
2022-11-22T05:51:34.578Z,9.55
2022-11-22T05:56:36.792Z,7.75
2022-11-22T06:01:38.485Z,7.50
2022-11-22T06:06:40.215Z,6.35
2022-11-22T06:11:41.843Z,7.18
2022-11-22T06:16:43.601Z,7.50
2022-11-22T06:21:45.251Z,7.88
2022-11-22T06:26:46.937Z,7.38
2022-11-22T06:31:48.702Z,6.47
2022-11-22T06:36:50.532Z,17.17
2022-11-22T06:41:52.372Z,9.07
2022-11-22T06:46:53.993Z,8.77
2022-11-22T06:51:55.868Z,9.07
2022-11-22T06:56:57.699Z,8.80
2022-11-22T07:02:05.762Z,8.00
2022-11-22T07:07:08.377Z,7.20
2022-11-22T07:12:10.072Z,9.45
2022-11-22T07:17:11.926Z,8.27
2022-11-22T07:22:13.630Z,8.25
2022-11-22T07:27:15.864Z,9.15
2022-11-22T07:32:17.702Z,10.38
2022-11-22T07:37:19.345Z,8.75
2022-11-22T07:42:25.834Z,9.05
2022-11-22T07:47:28.655Z,10.55
2022-11-22T07:52:30.387Z,7.57
2022-11-22T07:57:32.606Z,9.07
2022-11-22T08:02:34.363Z,9.88
2022-11-22T08:07:36.163Z,13.93
2022-11-22T08:12:37.852Z,8.80
2022-11-22T08:17:39.686Z,12.50
2022-11-22T08:22:42.312Z,15.33
2022-11-22T08:27:44.509Z,13.13
2022-11-22T08:32:46.131Z,12.23
2022-11-22T08:37:47.811Z,11.50
2022-11-22T08:42:49.808Z,10.07
2022-11-22T08:47:52.497Z,11.63
2022-11-22T08:52:54.584Z,11.88
2022-11-22T08:58:00.047Z,10.03
2022-11-22T09:03:01.851Z,9.00
2022-11-22T09:13:25.443Z,10.23
2022-11-22T09:18:27.118Z,12.30
2022-11-22T09:23:29.512Z,10.38
2022-11-22T09:28:31.720Z,12.43
2022-11-22T09:33:35.143Z,10.40
2022-11-22T09:38:37.959Z,11.85
2022-11-22T09:49:13.677Z,15.82
2022-11-22T09:54:22.706Z,12.77
2022-11-22T09:59:31.839Z,12.60
2022-11-22T10:05:04.917Z,12.15
2022-11-22T10:10:16.708Z,11.48
2022-11-22T10:15:36.072Z,14.32
2022-11-22T10:20:47.315Z,12.30
2022-11-22T10:25:58.753Z,10.93
2022-11-22T10:31:20.884Z,16.58
2022-11-22T10:36:39.493Z,10.85
2022-11-22T10:42:19.632Z,14.43
2022-11-22T10:48:01.992Z,12.10
2022-11-22T10:53:22.271Z,15.80
2022-11-22T10:58:49.388Z,12.15
2022-11-22T11:03:59.396Z,13.38
2022-11-22T11:10:03.004Z,14.32
2022-11-22T11:14:43.174Z,13.00
2022-11-22T11:19:48.464Z,10.65
2022-11-22T11:24:50.120Z,12.55
2022-11-22T11:30:03.727Z,13.82
2022-11-22T11:35:08.107Z,18.83
2022-11-22T11:40:30.669Z,13.27
2022-11-22T11:45:33.025Z,14.40
2022-11-22T11:50:34.712Z,12.35
2022-11-22T11:55:37.226Z,10.88
2022-11-22T12:00:40.045Z,10.60
2022-11-22T12:05:41.714Z,13.13
2022-11-22T12:10:59.788Z,13.07
2022-11-22T12:16:29.822Z,9.95
2022-11-22T12:21:37.351Z,12.00
2022-11-22T12:26:39.978Z,11.75
2022-11-22T12:31:57.090Z,12.77
2022-11-22T12:37:09.006Z,10.65
2022-11-22T12:42:20.066Z,14.13
2022-11-22T12:47:32.208Z,11.38
2022-11-22T12:53:00.409Z,13.13
2022-11-22T12:58:20.480Z,15.65
2022-11-22T13:03:30.284Z,15.77
2022-11-22T13:08:52.879Z,14.40
2022-11-22T13:14:06.468Z,11.80
2022-11-22T13:19:12.991Z,10.20
2022-11-22T13:24:42.302Z,13.43
2022-11-22T13:29:45.328Z,13.63
2022-11-22T13:35:01.426Z,11.68
2022-11-22T13:40:15.315Z,8.45
2022-11-22T13:45:24.644Z,13.88
2022-11-22T13:50:41.861Z,10.10
2022-11-22T13:55:43.563Z,9.10
2022-11-22T14:00:45.471Z,9.57
2022-11-22T14:05:53.555Z,8.32
2022-11-22T14:10:55.214Z,7.97
2022-11-22T14:16:13.270Z,9.80
2022-11-22T14:21:20.980Z,11.40
2022-11-22T14:26:41.541Z,10.63
2022-11-22T14:31:55.173Z,10.45
2022-11-22T14:37:29.125Z,8.20
2022-11-22T14:42:36.927Z,7.22
2022-11-22T14:47:46.316Z,10.63
2022-11-22T14:52:48.139Z,10.48
2022-11-22T14:57:59.797Z,10.60
2022-11-22T15:03:27.147Z,11.27
2022-11-22T15:09:15.565Z,12.50
2022-11-22T15:14:37.176Z,9.07
2022-11-22T15:57:55.181Z,11.68
2022-11-22T16:03:01.459Z,12.75
2022-11-22T16:08:05.794Z,16.75
2022-11-22T16:13:35.993Z,10.57
2022-11-22T16:18:39.161Z,10.23
2022-11-22T16:23:42.138Z,9.02
2022-11-22T16:33:46.225Z,9.63
2022-11-22T16:38:48.348Z,10.02
2022-11-22T16:43:53.820Z,10.65
2022-11-22T16:48:56.196Z,14.93
2022-11-22T16:54:00.423Z,16.08
2022-11-22T16:59:02.216Z,10.00
2022-11-22T17:04:04.845Z,9.15
2022-11-22T17:09:06.605Z,9.27
2022-11-22T17:14:16.367Z,13.50
2022-11-22T17:19:51.612Z,14.45
2022-11-22T17:24:39.610Z,10.02
2022-11-22T17:29:50.359Z,15.32
2022-11-22T17:34:52.663Z,8.10
2022-11-22T17:39:54.328Z,9.40
2022-11-22T17:44:56.154Z,11.63
2022-11-22T17:49:58.021Z,9.60
2022-11-22T17:55:05.215Z,13.50
2022-11-22T18:00:10.284Z,11.98
2022-11-22T18:05:12.945Z,10.63
2022-11-22T18:10:14.611Z,12.70
2022-11-22T18:15:16.384Z,10.02
2022-11-22T18:20:18.108Z,15.13
2022-11-22T18:25:20.113Z,10.70
2022-11-22T18:30:22.047Z,13.95
2022-11-22T18:35:24.356Z,15.27
2022-11-22T18:40:26.320Z,10.82
2022-11-22T18:45:32.533Z,11.57
2022-11-22T18:50:34.497Z,13.57
2022-11-22T18:55:36.236Z,11.40
2022-11-22T19:00:37.907Z,9.38
2022-11-22T19:05:40.109Z,14.10
2022-11-22T19:10:43.844Z,8.33
2022-11-22T19:15:45.577Z,10.90
2022-11-22T19:20:55.034Z,10.13
2022-11-22T19:25:57.529Z,9.30
2022-11-22T19:31:10.121Z,8.10
2022-11-22T19:36:14.675Z,10.05
2022-11-22T19:41:21.590Z,8.13
2022-11-22T19:46:24.552Z,9.05
2022-11-22T19:51:28.914Z,9.68
2022-11-22T19:56:33.608Z,10.35
2022-11-22T20:01:35.687Z,9.90
2022-11-22T20:06:37.691Z,7.63
2022-11-22T20:11:41.252Z,8.47
2022-11-22T20:16:43.125Z,9.32
2022-11-22T20:21:45.969Z,9.65
2022-11-22T20:26:47.579Z,7.88
2022-11-22T20:31:49.291Z,11.80
2022-11-22T20:36:50.997Z,15.20
2022-11-22T20:42:11.843Z,12.25
2022-11-22T20:47:15.047Z,10.35
2022-11-22T20:52:16.713Z,8.70
2022-11-22T20:57:18.619Z,13.93
2022-11-22T21:02:20.404Z,13.67
2022-11-22T21:07:22.557Z,8.20
2022-11-22T21:12:25.088Z,8.30
2022-11-22T21:17:50.133Z,6.85
2022-11-22T21:22:54.293Z,7.65
2022-11-22T21:27:56.081Z,7.88
2022-11-22T21:32:58.130Z,11.67
2022-11-22T21:37:59.795Z,9.45
2022-11-22T21:43:01.474Z,7.43
2022-11-22T21:48:04.577Z,7.32
2022-11-22T21:53:06.604Z,8.93
2022-11-22T21:58:08.390Z,9.70
2022-11-22T22:03:10.082Z,8.27
2022-11-22T22:08:11.810Z,11.32
2022-11-22T22:13:13.533Z,10.07
2022-11-22T22:18:15.595Z,10.75
2022-11-22T22:23:17.211Z,15.83
2022-11-22T22:28:18.904Z,9.38
2022-11-22T22:33:20.836Z,9.93
2022-11-22T22:38:23.001Z,10.88
2022-11-22T22:43:25.736Z,9.23
2022-11-22T22:48:29.149Z,7.18
2022-11-22T22:53:31.105Z,9.50
2022-11-22T22:58:33.585Z,10.17
2022-11-22T23:03:36.115Z,11.98
2022-11-22T23:08:38.933Z,9.10
2022-11-22T23:18:44.613Z,13.80
2022-11-22T23:23:46.270Z,12.90
2022-11-22T23:28:48.796Z,12.30
2022-11-22T23:33:50.806Z,12.50
2022-11-22T23:38:52.515Z,16.20
2022-11-22T23:43:56.295Z,11.77
2022-11-22T23:49:00.850Z,11.07
2022-11-22T23:54:06.448Z,8.30
2022-11-22T23:59:09.416Z,11.00
